createdAt,value
2023-02-17T00:01:31.252Z,72.48
2023-02-17T00:04:09.125Z,72.59
2023-02-17T00:06:41.678Z,72.78
2023-02-17T00:09:14.368Z,72.77
2023-02-17T00:11:47.307Z,73.15
2023-02-17T00:14:18.020Z,73.58
2023-02-17T00:16:50.858Z,74.12
2023-02-17T00:19:26.406Z,74.36
2023-02-17T00:21:59.919Z,74.36
2023-02-17T00:24:32.266Z,73.84
2023-02-17T00:27:02.791Z,73.95
2023-02-17T00:29:33.346Z,73.50
2023-02-17T00:32:06.432Z,73.58
2023-02-17T00:34:39.614Z,73.11
2023-02-17T00:37:10.122Z,72.52
2023-02-17T00:39:40.598Z,72.56
2023-02-17T00:42:10.751Z,71.85
2023-02-17T00:44:43.136Z,71.76
2023-02-17T00:47:15.700Z,71.67
2023-02-17T00:49:52.192Z,71.71
2023-02-17T00:52:24.472Z,71.45
2023-02-17T00:54:54.656Z,71.19
2023-02-17T00:57:24.955Z,71.23
2023-02-17T00:59:55.389Z,71.06
2023-02-17T01:02:25.648Z,70.94
2023-02-17T01:04:58.755Z,70.23
2023-02-17T01:07:29.059Z,70.35
2023-02-17T01:09:59.291Z,69.98
2023-02-17T01:12:33.046Z,70.53
2023-02-17T01:15:03.970Z,70.33
2023-02-17T01:17:34.215Z,69.98
2023-02-17T01:20:10.915Z,70.36
2023-02-17T01:22:41.738Z,70.30
2023-02-17T01:25:15.295Z,70.33
2023-02-17T01:27:47.755Z,70.35
2023-02-17T01:30:18.417Z,70.75
2023-02-17T01:32:55.795Z,70.39
2023-02-17T01:35:28.642Z,70.41
2023-02-17T01:37:58.962Z,70.58
2023-02-17T01:40:31.284Z,70.35
2023-02-17T01:43:04.516Z,70.49
2023-02-17T01:45:38.451Z,70.72
2023-02-17T01:48:14.820Z,70.62
2023-02-17T01:50:57.412Z,70.21
2023-02-17T01:53:36.547Z,70.31
2023-02-17T01:56:10.371Z,70.38
2023-02-17T01:58:45.691Z,70.20
2023-02-17T02:01:20.684Z,70.26
2023-02-17T02:03:51.322Z,70.19
2023-02-17T02:06:29.049Z,70.12
2023-02-17T02:09:06.794Z,70.12
2023-02-17T02:11:38.734Z,70.05
2023-02-17T02:14:11.652Z,69.62
2023-02-17T02:16:49.709Z,69.76
2023-02-17T02:19:50.270Z,69.85
2023-02-17T02:22:55.982Z,69.79
2023-02-17T02:25:49.851Z,69.86
2023-02-17T02:28:33.999Z,69.68
2023-02-17T02:31:21.719Z,69.31
2023-02-17T02:34:04.292Z,69.28
2023-02-17T02:36:38.668Z,69.80
2023-02-17T02:39:21.085Z,69.76
2023-02-17T02:41:56.361Z,70.17
2023-02-17T02:44:29.386Z,69.84
2023-02-17T02:47:00.685Z,70.42
2023-02-17T02:49:36.439Z,70.05
2023-02-17T02:52:12.591Z,70.00
2023-02-17T02:54:55.020Z,70.54
2023-02-17T02:57:42.728Z,70.55
2023-02-17T03:00:23.358Z,70.35
2023-02-17T03:02:58.726Z,70.54
2023-02-17T03:05:40.973Z,70.44
2023-02-17T03:08:15.854Z,70.38
2023-02-17T03:10:49.862Z,70.24
2023-02-17T03:13:21.347Z,70.30
2023-02-17T03:15:54.443Z,70.86
2023-02-17T03:18:24.759Z,70.93
2023-02-17T03:21:00.789Z,70.92
2023-02-17T03:23:31.100Z,70.56
2023-02-17T03:26:01.491Z,70.63
2023-02-17T03:28:31.907Z,71.01
2023-02-17T03:31:02.176Z,71.37
2023-02-17T03:33:32.740Z,71.62
2023-02-17T03:36:05.736Z,71.55
2023-02-17T03:38:36.814Z,71.63
2023-02-17T03:41:07.791Z,71.32
2023-02-17T03:43:38.267Z,71.05
2023-02-17T03:46:12.878Z,71.29
2023-02-17T03:48:43.309Z,71.32
2023-02-17T03:51:21.978Z,71.34
2023-02-17T03:53:53.189Z,71.05
2023-02-17T03:56:23.922Z,71.23
2023-02-17T03:58:54.361Z,71.26
2023-02-17T04:01:27.128Z,70.96
2023-02-17T04:03:59.618Z,71.01
2023-02-17T04:06:32.518Z,70.76
2023-02-17T04:09:05.047Z,70.74
2023-02-17T04:11:40.678Z,70.38
2023-02-17T04:14:10.864Z,70.63
2023-02-17T04:16:43.903Z,70.58
2023-02-17T04:19:14.322Z,70.95
2023-02-17T04:21:50.009Z,70.82
2023-02-17T04:24:20.245Z,70.74
2023-02-17T04:26:50.449Z,70.68
2023-02-17T04:29:21.960Z,70.74
2023-02-17T04:31:55.818Z,70.51
2023-02-17T04:34:28.119Z,70.34
2023-02-17T04:37:01.030Z,70.51
2023-02-17T04:39:31.178Z,70.30
2023-02-17T04:42:04.687Z,70.33
2023-02-17T04:44:35.632Z,70.07
2023-02-17T04:47:05.877Z,69.90
2023-02-17T04:49:36.412Z,69.98
2023-02-17T04:52:13.030Z,70.58
2023-02-17T04:54:43.444Z,70.35
2023-02-17T04:57:16.568Z,70.72
2023-02-17T04:59:47.779Z,70.74
2023-02-17T05:02:18.065Z,70.49
2023-02-17T05:04:48.732Z,70.22
2023-02-17T05:07:21.575Z,70.44
2023-02-17T05:09:52.146Z,70.56
2023-02-17T05:12:22.802Z,70.68
2023-02-17T05:14:53.339Z,70.82
2023-02-17T05:17:30.600Z,70.39
2023-02-17T05:20:01.524Z,70.48
2023-02-17T05:22:34.391Z,70.89
2023-02-17T05:25:04.650Z,70.45
2023-02-17T05:27:35.166Z,70.93
2023-02-17T05:30:10.402Z,70.93
2023-02-17T05:32:52.831Z,70.60
2023-02-17T05:35:23.358Z,70.60
2023-02-17T05:37:56.199Z,71.11
2023-02-17T05:40:26.485Z,71.24
2023-02-17T05:42:59.069Z,70.71
2023-02-17T05:45:34.687Z,70.86
2023-02-17T05:48:05.922Z,70.77
2023-02-17T05:50:36.848Z,70.61
2023-02-17T05:53:10.054Z,70.89
2023-02-17T05:55:40.642Z,70.71
2023-02-17T05:58:11.009Z,70.56
2023-02-17T06:00:41.270Z,70.46
2023-02-17T06:03:13.649Z,70.58
2023-02-17T06:05:48.447Z,69.86
2023-02-17T06:08:21.409Z,70.10
2023-02-17T06:10:54.122Z,70.37
2023-02-17T06:13:24.894Z,70.28
2023-02-17T06:15:55.144Z,70.53
2023-02-17T06:18:25.288Z,70.33
2023-02-17T06:20:58.183Z,70.55
2023-02-17T06:23:34.018Z,70.35
2023-02-17T06:26:04.616Z,70.57
2023-02-17T06:28:35.274Z,70.25
2023-02-17T06:31:05.581Z,69.95
2023-02-17T06:33:36.441Z,69.78
2023-02-17T06:36:07.502Z,69.91
2023-02-17T06:38:40.662Z,69.62
2023-02-17T06:41:15.998Z,69.63
2023-02-17T06:43:49.114Z,69.63
2023-02-17T06:46:19.291Z,68.60
2023-02-17T06:48:49.693Z,68.34
2023-02-17T06:51:22.948Z,68.43
2023-02-17T06:53:58.204Z,68.39
2023-02-17T06:56:30.585Z,68.50
2023-02-17T06:59:00.990Z,68.48
2023-02-17T07:01:32.765Z,68.63
2023-02-17T07:04:03.180Z,69.32
2023-02-17T07:06:33.339Z,69.12
2023-02-17T07:09:11.635Z,69.02
2023-02-17T07:11:47.142Z,69.02
2023-02-17T07:14:17.584Z,69.25
2023-02-17T07:16:50.303Z,69.30
2023-02-17T07:19:20.624Z,69.08
2023-02-17T07:21:51.241Z,68.89
2023-02-17T07:24:26.697Z,68.66
2023-02-17T07:26:57.068Z,68.52
2023-02-17T07:29:30.814Z,68.20
2023-02-17T07:32:01.177Z,68.14
2023-02-17T07:34:31.835Z,67.88
2023-02-17T07:37:07.042Z,67.96
2023-02-17T07:39:40.947Z,68.41
2023-02-17T07:42:12.260Z,68.61
2023-02-17T07:44:45.171Z,68.44
2023-02-17T07:47:15.715Z,68.22
2023-02-17T07:49:46.156Z,68.32
2023-02-17T07:52:19.394Z,68.23
2023-02-17T07:54:56.207Z,67.73
2023-02-17T07:57:26.512Z,67.75
2023-02-17T07:59:56.794Z,67.60
2023-02-17T08:02:30.779Z,67.38
2023-02-17T08:05:03.544Z,66.18
2023-02-17T08:07:36.567Z,66.11
2023-02-17T08:10:30.483Z,66.00
2023-02-17T08:13:14.448Z,66.18
2023-02-17T08:15:44.655Z,66.16
2023-02-17T08:18:16.203Z,65.56
2023-02-17T08:20:46.666Z,64.89
2023-02-17T08:23:19.984Z,65.09
2023-02-17T08:25:52.806Z,64.74
2023-02-17T08:28:23.082Z,63.84
2023-02-17T08:30:53.494Z,63.33
2023-02-17T08:33:26.909Z,62.67
2023-02-17T08:35:57.790Z,62.11
2023-02-17T08:38:31.243Z,61.88
2023-02-17T08:41:06.813Z,61.49
2023-02-17T08:43:44.478Z,61.24
2023-02-17T08:46:20.797Z,60.85
2023-02-17T08:48:52.731Z,61.08
2023-02-17T08:51:26.338Z,61.15
2023-02-17T08:53:58.769Z,61.12
2023-02-17T08:56:32.578Z,60.36
2023-02-17T08:59:03.628Z,60.39
2023-02-17T09:01:35.101Z,60.56
2023-02-17T09:04:12.007Z,60.16
2023-02-17T09:06:44.244Z,60.11
2023-02-17T09:09:16.808Z,60.17
2023-02-17T09:11:49.735Z,59.93
2023-02-17T09:14:22.974Z,58.99
2023-02-17T09:16:56.116Z,58.55
2023-02-17T09:19:29.512Z,57.82
2023-02-17T09:21:59.931Z,57.77
2023-02-17T09:24:33.213Z,57.55
2023-02-17T09:27:06.221Z,57.51
2023-02-17T09:29:37.539Z,57.53
2023-02-17T09:32:10.525Z,57.92
2023-02-17T09:34:42.428Z,57.34
2023-02-17T09:37:15.009Z,56.67
2023-02-17T09:39:45.231Z,55.25
2023-02-17T09:42:23.309Z,55.03
2023-02-17T09:45:01.661Z,54.28
2023-02-17T09:47:40.129Z,54.08
2023-02-17T09:50:15.035Z,53.97
2023-02-17T09:52:54.187Z,53.91
2023-02-17T09:55:28.460Z,54.16
2023-02-17T09:58:09.718Z,53.67
2023-02-17T10:00:47.045Z,54.55
2023-02-17T10:03:21.458Z,55.15
2023-02-17T10:05:56.201Z,54.81
2023-02-17T10:08:34.881Z,54.68
2023-02-17T10:11:11.593Z,54.40
2023-02-17T10:13:47.780Z,54.20
2023-02-17T10:16:25.116Z,54.09
2023-02-17T10:19:02.349Z,54.38
2023-02-17T10:21:38.738Z,55.03
2023-02-17T10:24:09.318Z,55.61
2023-02-17T10:27:03.575Z,56.09
2023-02-17T10:29:44.900Z,55.53
2023-02-17T10:32:26.040Z,55.49
2023-02-17T10:35:13.564Z,55.74
2023-02-17T10:37:49.875Z,54.70
2023-02-17T10:40:26.263Z,53.14
2023-02-17T10:43:00.168Z,52.98
2023-02-17T10:45:38.252Z,53.12
2023-02-17T10:48:14.874Z,53.04
2023-02-17T10:50:48.427Z,53.01
2023-02-17T10:53:22.857Z,52.89
2023-02-17T10:56:04.394Z,51.61
2023-02-17T10:58:42.298Z,51.95
2023-02-17T11:01:19.877Z,51.15
2023-02-17T11:03:50.360Z,49.88
2023-02-17T11:06:23.582Z,48.09
2023-02-17T11:08:57.280Z,46.46
2023-02-17T11:11:29.528Z,46.51
2023-02-17T11:14:12.673Z,45.58
2023-02-17T11:16:48.160Z,45.43
2023-02-17T11:19:27.508Z,45.23
2023-02-17T11:22:02.924Z,43.94
2023-02-17T11:24:38.870Z,43.29
2023-02-17T11:27:13.147Z,43.55
2023-02-17T11:29:43.717Z,44.04
2023-02-17T11:32:17.692Z,43.22
2023-02-17T11:34:47.964Z,44.44
2023-02-17T11:37:32.547Z,43.80
2023-02-17T11:40:03.219Z,44.25
2023-02-17T11:42:35.721Z,43.74
2023-02-17T11:45:21.323Z,43.79
2023-02-17T11:48:29.325Z,43.22
2023-02-17T11:51:08.037Z,43.07
2023-02-17T11:53:51.771Z,42.59
2023-02-17T11:56:26.908Z,42.19
2023-02-17T11:59:19.543Z,42.50
2023-02-17T12:02:02.191Z,42.36
2023-02-17T12:04:37.368Z,42.11
2023-02-17T12:07:40.331Z,42.02
2023-02-17T12:10:19.370Z,42.06
2023-02-17T12:13:01.762Z,41.99
2023-02-17T12:16:02.303Z,42.86
2023-02-17T12:19:07.682Z,42.96
2023-02-17T12:21:51.143Z,43.11
2023-02-17T12:24:44.522Z,42.64
2023-02-17T12:27:27.867Z,42.58
2023-02-17T12:30:13.702Z,42.18
2023-02-17T12:33:06.075Z,43.12
2023-02-17T12:35:45.726Z,43.74
2023-02-17T12:38:26.997Z,43.33
2023-02-17T12:41:07.976Z,43.72
2023-02-17T12:43:44.035Z,43.62
2023-02-17T12:46:18.562Z,44.27
2023-02-17T12:48:58.891Z,44.21
2023-02-17T12:51:36.199Z,44.58
2023-02-17T12:54:20.994Z,44.94
2023-02-17T12:57:16.168Z,44.65
2023-02-17T12:59:50.452Z,44.99
2023-02-17T13:02:22.566Z,44.88
2023-02-17T13:04:55.017Z,44.55
2023-02-17T13:07:47.038Z,44.22
2023-02-17T13:10:36.702Z,44.30
2023-02-17T13:13:10.365Z,44.52
2023-02-17T13:15:43.473Z,44.07
2023-02-17T13:18:29.602Z,44.87
2023-02-17T13:21:02.618Z,45.35
2023-02-17T13:23:41.700Z,45.35
2023-02-17T13:26:28.936Z,45.53
2023-02-17T13:29:21.940Z,46.54
2023-02-17T13:32:01.594Z,47.18
2023-02-17T13:34:36.401Z,48.42
2023-02-17T13:37:21.394Z,49.86
2023-02-17T13:39:54.443Z,50.00
2023-02-17T13:42:41.098Z,50.29
2023-02-17T13:45:24.067Z,50.53
2023-02-17T13:47:56.517Z,50.94
2023-02-17T13:50:36.445Z,50.37
2023-02-17T13:53:25.885Z,49.23
2023-02-17T13:55:58.067Z,49.65
2023-02-17T13:58:33.351Z,49.74
2023-02-17T14:01:05.814Z,50.20
2023-02-17T14:03:38.869Z,49.53
2023-02-17T14:06:13.915Z,49.51
2023-02-17T14:08:45.986Z,50.42
2023-02-17T14:11:19.610Z,51.00
2023-02-17T14:13:55.219Z,51.71
2023-02-17T14:16:32.292Z,52.35
2023-02-17T14:19:11.130Z,53.76
2023-02-17T14:21:46.248Z,53.49
2023-02-17T14:24:28.636Z,55.09
2023-02-17T14:27:05.831Z,55.50
2023-02-17T14:29:47.254Z,56.25
2023-02-17T14:32:35.206Z,56.83
2023-02-17T14:35:22.749Z,57.14
2023-02-17T14:37:55.172Z,57.41
2023-02-17T14:40:27.368Z,58.47
2023-02-17T14:42:57.784Z,59.58
2023-02-17T14:45:33.387Z,60.44
2023-02-17T14:48:03.718Z,61.02
2023-02-17T14:50:38.137Z,61.17
2023-02-17T14:53:17.204Z,61.90
2023-02-17T14:55:53.648Z,61.97
2023-02-17T14:58:26.676Z,62.63
2023-02-17T15:01:02.686Z,63.19
2023-02-17T15:03:33.334Z,63.23
2023-02-17T15:06:07.862Z,63.72
2023-02-17T15:08:39.606Z,63.68
2023-02-17T15:11:21.119Z,64.47
2023-02-17T15:13:51.653Z,65.26
2023-02-17T15:16:27.519Z,64.93
2023-02-17T15:19:00.995Z,65.37
2023-02-17T15:21:34.589Z,65.49
2023-02-17T15:24:07.076Z,65.81
2023-02-17T15:26:37.225Z,66.87
2023-02-17T15:29:19.284Z,66.75
2023-02-17T15:32:06.579Z,66.81
2023-02-17T15:34:37.901Z,73.42
2023-02-17T15:37:20.715Z,71.04
2023-02-17T15:39:52.078Z,68.19
2023-02-17T15:42:22.967Z,66.70
2023-02-17T15:44:54.616Z,65.85
2023-02-17T15:47:32.325Z,65.23
2023-02-17T15:50:05.194Z,64.88
2023-02-17T15:52:40.533Z,65.07
2023-02-17T15:55:11.304Z,65.25
2023-02-17T15:57:49.533Z,65.25
2023-02-17T16:00:22.486Z,65.29
2023-02-17T16:02:56.603Z,66.47
2023-02-17T16:05:30.457Z,66.64
2023-02-17T16:08:01.055Z,66.63
2023-02-17T16:10:33.576Z,66.51
2023-02-17T16:13:04.787Z,66.16
2023-02-17T16:15:36.247Z,66.20
2023-02-17T16:18:09.711Z,66.56
2023-02-17T16:20:42.848Z,66.94
2023-02-17T16:23:13.366Z,66.99
2023-02-17T16:25:48.553Z,66.61
2023-02-17T16:28:21.407Z,66.78
2023-02-17T16:30:55.316Z,66.62
2023-02-17T16:33:28.336Z,66.99
2023-02-17T16:35:58.680Z,67.31
2023-02-17T16:38:30.103Z,67.61
2023-02-17T16:41:02.594Z,67.93
2023-02-17T16:43:33.432Z,67.22
2023-02-17T16:46:08.417Z,66.96
2023-02-17T16:48:51.341Z,66.74
2023-02-17T16:51:22.884Z,66.57
2023-02-17T16:53:53.238Z,66.11
2023-02-17T16:56:32.254Z,66.63
2023-02-17T16:59:02.993Z,66.76
2023-02-17T17:01:33.410Z,66.47
2023-02-17T17:04:07.279Z,67.48
2023-02-17T17:06:37.728Z,67.94
2023-02-17T17:09:08.661Z,67.40
2023-02-17T17:11:39.255Z,67.06
2023-02-17T17:14:12.660Z,66.92
2023-02-17T17:16:44.588Z,66.46
2023-02-17T17:19:18.947Z,66.09
2023-02-17T17:21:49.684Z,66.06
2023-02-17T17:24:22.369Z,65.35
2023-02-17T17:27:00.291Z,64.80
2023-02-17T17:29:32.003Z,65.31
2023-02-17T17:32:02.505Z,65.27
2023-02-17T17:34:35.886Z,64.94
2023-02-17T17:37:10.370Z,64.79
2023-02-17T17:39:43.610Z,64.34
2023-02-17T17:42:16.834Z,64.34
2023-02-17T17:44:47.355Z,63.62
2023-02-17T17:47:29.451Z,63.51
2023-02-17T17:50:03.656Z,63.91
2023-02-17T17:52:34.263Z,63.07
2023-02-17T17:55:05.061Z,63.09
2023-02-17T17:57:35.500Z,62.95
2023-02-17T18:00:08.908Z,63.00
2023-02-17T18:02:43.771Z,63.14
2023-02-17T18:05:16.914Z,63.72
2023-02-17T18:07:50.058Z,63.43
2023-02-17T18:10:27.974Z,63.06
2023-02-17T18:13:00.938Z,63.07
2023-02-17T18:15:31.512Z,62.86
2023-02-17T18:18:02.261Z,62.88
2023-02-17T18:20:35.544Z,62.75
2023-02-17T18:23:06.277Z,62.60
2023-02-17T18:25:36.751Z,62.51
2023-02-17T18:28:07.608Z,62.40
2023-02-17T18:30:52.502Z,62.30
2023-02-17T18:33:30.062Z,62.30
2023-02-17T18:36:09.949Z,61.84
2023-02-17T18:38:40.395Z,62.02
2023-02-17T18:41:19.711Z,62.09
2023-02-17T18:43:51.023Z,61.89
2023-02-17T18:46:21.709Z,61.95
2023-02-17T18:48:52.537Z,61.94
2023-02-17T18:51:32.185Z,61.44
2023-02-17T18:54:03.611Z,61.73
2023-02-17T18:56:38.546Z,62.16
2023-02-17T18:59:10.096Z,61.62
2023-02-17T19:01:49.935Z,61.48
2023-02-17T19:04:20.146Z,61.84
2023-02-17T19:06:55.522Z,62.18
2023-02-17T19:09:25.852Z,61.27
2023-02-17T19:11:58.481Z,61.56
2023-02-17T19:14:29.284Z,61.16
2023-02-17T19:17:00.492Z,61.77
2023-02-17T19:19:34.152Z,61.58
2023-02-17T19:22:09.253Z,61.37
2023-02-17T19:24:44.272Z,61.55
2023-02-17T19:27:16.544Z,60.92
2023-02-17T19:29:47.205Z,60.73
2023-02-17T19:32:18.327Z,59.93
2023-02-17T19:34:50.339Z,59.14
2023-02-17T19:37:26.962Z,59.06
2023-02-17T19:39:57.922Z,58.35
2023-02-17T19:42:30.487Z,58.29
2023-02-17T19:45:07.933Z,58.75
2023-02-17T19:47:40.803Z,59.09
2023-02-17T19:50:12.437Z,59.53
2023-02-17T19:52:48.107Z,59.92
2023-02-17T19:55:19.175Z,59.55
2023-02-17T19:57:55.870Z,59.26
2023-02-17T20:00:29.759Z,59.51
2023-02-17T20:03:07.442Z,59.33
2023-02-17T20:05:41.274Z,59.26
2023-02-17T20:08:15.718Z,59.21
2023-02-17T20:10:55.500Z,59.28
2023-02-17T20:13:28.640Z,59.41
2023-02-17T20:16:01.898Z,58.62
2023-02-17T20:18:34.656Z,58.57
2023-02-17T20:21:10.305Z,58.68
2023-02-17T20:23:43.505Z,59.35
2023-02-17T20:26:17.153Z,59.48
2023-02-17T20:28:47.723Z,59.17
2023-02-17T20:31:18.928Z,59.73
2023-02-17T20:33:49.579Z,59.42
2023-02-17T20:36:22.287Z,58.89
2023-02-17T20:38:55.683Z,58.52
2023-02-17T20:41:29.640Z,58.35
2023-02-17T20:44:02.929Z,57.27
2023-02-17T20:46:34.246Z,57.41
2023-02-17T20:49:05.203Z,57.07
2023-02-17T20:51:35.797Z,56.92
2023-02-17T20:54:10.547Z,56.63
2023-02-17T20:56:43.199Z,57.16
2023-02-17T20:59:15.687Z,57.73
2023-02-17T21:01:46.348Z,57.84
2023-02-17T21:04:16.753Z,58.45
2023-02-17T21:06:48.153Z,59.09
2023-02-17T21:09:22.282Z,59.28
2023-02-17T21:11:53.142Z,59.65
2023-02-17T21:14:23.613Z,59.93
2023-02-17T21:16:54.074Z,60.35
2023-02-17T21:19:29.712Z,60.49
2023-02-17T21:22:00.052Z,60.87
2023-02-17T21:24:33.032Z,60.52
2023-02-17T21:27:03.301Z,62.21
2023-02-17T21:29:33.826Z,63.31
2023-02-17T21:32:04.907Z,62.61
2023-02-17T21:34:39.256Z,62.57
2023-02-17T21:37:10.914Z,62.34
2023-02-17T21:39:43.859Z,61.77
2023-02-17T21:42:14.118Z,61.32
2023-02-17T21:44:53.958Z,60.75
2023-02-17T21:47:24.562Z,59.93
2023-02-17T21:49:56.643Z,59.83
2023-02-17T21:52:26.820Z,59.69
2023-02-17T21:55:02.537Z,58.55
2023-02-17T21:57:34.207Z,58.02
2023-02-17T22:00:04.895Z,57.73
2023-02-17T22:02:35.271Z,57.50
2023-02-17T22:05:05.732Z,57.50
2023-02-17T22:07:36.005Z,57.47
2023-02-17T22:10:10.466Z,56.73
2023-02-17T22:12:42.108Z,56.22
2023-02-17T22:15:16.239Z,56.24
2023-02-17T22:17:48.112Z,56.05
2023-02-17T22:20:19.448Z,55.80
2023-02-17T22:22:49.745Z,55.76
2023-02-17T22:25:23.772Z,55.87
2023-02-17T22:27:54.584Z,55.56
2023-02-17T22:30:24.928Z,55.14
2023-02-17T22:32:55.267Z,55.18
2023-02-17T22:35:25.479Z,55.36
2023-02-17T22:37:57.621Z,55.46
2023-02-17T22:40:30.568Z,55.66
2023-02-17T22:43:00.774Z,55.61
2023-02-17T22:45:31.169Z,55.25
2023-02-17T22:48:02.243Z,56.04
2023-02-17T22:50:32.608Z,56.02
2023-02-17T22:53:02.868Z,55.83
2023-02-17T22:55:35.736Z,56.02
2023-02-17T22:58:06.191Z,55.81
2023-02-17T23:00:36.601Z,56.28
2023-02-17T23:03:07.107Z,55.73
2023-02-17T23:05:40.841Z,55.90
2023-02-17T23:08:11.438Z,56.44
2023-02-17T23:10:47.664Z,56.16
2023-02-17T23:13:19.014Z,56.55
2023-02-17T23:15:49.229Z,56.08
2023-02-17T23:18:21.805Z,55.89
2023-02-17T23:20:53.158Z,56.10
2023-02-17T23:23:23.509Z,56.13
2023-02-17T23:25:57.992Z,56.16
2023-02-17T23:28:28.822Z,55.88
2023-02-17T23:30:59.193Z,56.17
2023-02-17T23:33:32.560Z,56.44
2023-02-17T23:36:06.254Z,56.56
2023-02-17T23:38:37.225Z,56.33
2023-02-17T23:41:17.203Z,56.67
2023-02-17T23:43:47.406Z,57.03
2023-02-17T23:46:17.651Z,57.24
2023-02-17T23:48:48.216Z,58.08
2023-02-17T23:51:24.024Z,58.12
2023-02-17T23:53:57.411Z,58.58
2023-02-17T23:56:32.896Z,58.54
2023-02-17T23:59:03.463Z,58.42
